sensor_id;sensor_type;location;lat;lon;timestamp;P1;durP1;ratioP1;P2;durP2;ratioP2
57101;SDS011;42982;54.558;18.508;2023-04-03T08:31:10;1.33;;;0.60;;
57101;SDS011;42982;54.558;18.508;2023-04-03T08:32:18;1.75;;;0.73;;
57101;SDS011;42982;54.558;18.508;2023-04-03T08:33:23;2.38;;;0.98;;
57101;SDS011;42982;54.558;18.508;2023-04-03T08:34:29;1.90;;;0.80;;
57101;SDS011;42982;54.558;18.508;2023-04-03T08:36:19;1.92;;;0.80;;
57101;SDS011;42982;54.558;18.508;2023-04-03T08:37:27;3.50;;;0.80;;
57101;SDS011;42982;54.558;18.508;2023-04-03T08:38:29;0.77;;;0.70;;
57101;SDS011;42982;54.558;18.508;2023-04-03T08:39:32;1.33;;;0.82;;
57101;SDS011;42982;54.558;18.508;2023-04-03T08:40:41;1.83;;;0.70;;
57101;SDS011;42982;54.558;18.508;2023-04-03T08:41:46;1.95;;;0.70;;
57101;SDS011;42982;54.558;18.508;2023-04-03T08:43:03;1.60;;;0.50;;
57101;SDS011;42982;54.558;18.508;2023-04-03T08:45:57;2.38;;;0.60;;
57101;SDS011;42982;54.558;18.508;2023-04-03T08:47:10;1.48;;;0.70;;
57101;SDS011;42982;54.558;18.508;2023-04-03T08:48:20;7.32;;;1.40;;
57101;SDS011;42982;54.558;18.508;2023-04-03T08:49:35;5.75;;;1.85;;
57101;SDS011;42982;54.558;18.508;2023-04-03T08:50:55;5.25;;;1.90;;
57101;SDS011;42982;54.558;18.508;2023-04-03T08:52:12;4.70;;;2.50;;
57101;SDS011;42982;54.558;18.508;2023-04-03T08:53:40;6.35;;;2.00;;
57101;SDS011;42982;54.558;18.508;2023-04-03T08:54:49;4.25;;;1.90;;
57101;SDS011;42982;54.558;18.508;2023-04-03T08:55:57;3.88;;;2.00;;
57101;SDS011;42982;54.558;18.508;2023-04-03T08:57:01;6.57;;;1.60;;
57101;SDS011;42982;54.558;18.508;2023-04-03T08:58:16;5.80;;;1.88;;
57101;SDS011;42982;54.558;18.508;2023-04-03T08:59:24;3.80;;;1.80;;
57101;SDS011;42982;54.558;18.508;2023-04-03T09:00:32;3.10;;;1.60;;
57101;SDS011;42982;54.558;18.508;2023-04-03T09:02:00;3.50;;;1.35;;
57101;SDS011;42982;54.558;18.508;2023-04-03T09:03:11;6.07;;;2.45;;
57101;SDS011;42982;54.558;18.508;2023-04-03T09:04:17;2.40;;;1.45;;
57101;SDS011;42982;54.558;18.508;2023-04-03T09:06:34;5.22;;;1.83;;
57101;SDS011;42982;54.558;18.508;2023-04-03T09:07:43;3.85;;;1.73;;
57101;SDS011;42982;54.558;18.508;2023-04-03T09:08:55;3.22;;;1.65;;
57101;SDS011;42982;54.558;18.508;2023-04-03T09:10:12;5.20;;;2.60;;
57101;SDS011;42982;54.558;18.508;2023-04-03T09:13:03;4.30;;;1.70;;
57101;SDS011;42982;54.558;18.508;2023-04-03T09:14:29;5.60;;;2.17;;
57101;SDS011;42982;54.558;18.508;2023-04-03T09:15:39;5.13;;;1.88;;
57101;SDS011;42982;54.558;18.508;2023-04-03T09:19:04;1.48;;;0.95;;
57101;SDS011;42982;54.558;18.508;2023-04-03T09:20:25;4.70;;;2.00;;
57101;SDS011;42982;54.558;18.508;2023-04-03T09:21:46;5.60;;;1.58;;
57101;SDS011;42982;54.558;18.508;2023-04-03T09:22:48;6.47;;;1.45;;
57101;SDS011;42982;54.558;18.508;2023-04-03T09:23:57;5.72;;;2.17;;
57101;SDS011;42982;54.558;18.508;2023-04-03T09:25:12;3.42;;;1.50;;
57101;SDS011;42982;54.558;18.508;2023-04-03T09:26:42;5.30;;;2.42;;
57101;SDS011;42982;54.558;18.508;2023-04-03T09:27:51;9.80;;;3.60;;
57101;SDS011;42982;54.558;18.508;2023-04-03T09:29:00;11.02;;;2.97;;
57101;SDS011;42982;54.558;18.508;2023-04-03T09:30:16;4.93;;;1.52;;
57101;SDS011;42982;54.558;18.508;2023-04-03T09:31:23;8.82;;;2.17;;
57101;SDS011;42982;54.558;18.508;2023-04-03T09:32:34;5.90;;;2.20;;
57101;SDS011;42982;54.558;18.508;2023-04-03T09:33:39;4.90;;;1.60;;
57101;SDS011;42982;54.558;18.508;2023-04-03T09:34:46;3.80;;;1.30;;
57101;SDS011;42982;54.558;18.508;2023-04-03T09:35:52;5.80;;;2.40;;
57101;SDS011;42982;54.558;18.508;2023-04-03T09:36:55;5.93;;;2.05;;
57101;SDS011;42982;54.558;18.508;2023-04-03T09:39:14;12.10;;;3.42;;
57101;SDS011;42982;54.558;18.508;2023-04-03T09:41:28;8.52;;;3.10;;
57101;SDS011;42982;54.558;18.508;2023-04-03T09:42:38;8.55;;;2.92;;
57101;SDS011;42982;54.558;18.508;2023-04-03T09:43:51;10.40;;;3.25;;
57101;SDS011;42982;54.558;18.508;2023-04-03T09:44:57;8.43;;;1.77;;
57101;SDS011;42982;54.558;18.508;2023-04-03T09:47:35;9.15;;;3.10;;
57101;SDS011;42982;54.558;18.508;2023-04-03T09:48:40;8.52;;;3.25;;
57101;SDS011;42982;54.558;18.508;2023-04-03T09:50:08;6.18;;;2.17;;
57101;SDS011;42982;54.558;18.508;2023-04-03T09:51:24;6.13;;;2.00;;
57101;SDS011;42982;54.558;18.508;2023-04-03T09:52:35;8.75;;;3.38;;
57101;SDS011;42982;54.558;18.508;2023-04-03T09:53:39;7.53;;;3.00;;
57101;SDS011;42982;54.558;18.508;2023-04-03T09:54:48;11.77;;;3.53;;
57101;SDS011;42982;54.558;18.508;2023-04-03T09:55:52;12.48;;;3.75;;
57101;SDS011;42982;54.558;18.508;2023-04-03T09:57:09;9.68;;;3.05;;
57101;SDS011;42982;54.558;18.508;2023-04-03T09:58:53;7.95;;;3.28;;
57101;SDS011;42982;54.558;18.508;2023-04-03T09:59:58;8.70;;;3.30;;
57101;SDS011;42982;54.558;18.508;2023-04-03T10:01:02;7.88;;;2.50;;
57101;SDS011;42982;54.558;18.508;2023-04-03T10:03:28;6.43;;;2.35;;
57101;SDS011;42982;54.558;18.508;2023-04-03T10:04:50;5.63;;;1.88;;
57101;SDS011;42982;54.558;18.508;2023-04-03T10:05:58;9.80;;;3.55;;
